createdAt,value
2019-05-05T00:00:04.930Z,15.71
2019-05-05T00:05:12.907Z,15.12
2019-05-05T00:10:25.375Z,15.28
2019-05-05T00:15:48.095Z,15.74
2019-05-05T00:20:55.086Z,14.96
2019-05-05T00:26:00.552Z,15.83
2019-05-05T00:31:07.474Z,15.53
2019-05-05T00:36:14.365Z,15.65
2019-05-05T00:41:19.204Z,15.89
2019-05-05T00:46:31.812Z,16.20
2019-05-05T00:51:36.660Z,15.99
2019-05-05T00:56:41.408Z,15.52
2019-05-05T01:02:04.615Z,15.78
2019-05-05T01:07:09.749Z,15.77
2019-05-05T01:12:15.071Z,16.37
2019-05-05T01:17:20.859Z,15.81
2019-05-05T01:22:25.598Z,15.35
2019-05-05T01:27:30.754Z,16.09
2019-05-05T01:32:37.241Z,15.89
2019-05-05T01:37:44.273Z,15.72
2019-05-05T01:42:50.119Z,16.32
2019-05-05T01:47:54.853Z,16.37
2019-05-05T01:52:59.518Z,16.67
2019-05-05T01:58:04.776Z,16.32
2019-05-05T02:03:09.602Z,15.92
2019-05-05T02:08:15.342Z,15.68
2019-05-05T02:13:20.101Z,15.85
2019-05-05T02:18:25.387Z,16.27
2019-05-05T02:23:32.635Z,15.96
2019-05-05T02:28:39.041Z,16.05
2019-05-05T02:33:45.973Z,16.52
2019-05-05T02:38:50.380Z,16.24
2019-05-05T02:43:55.857Z,16.55
2019-05-05T02:49:01.293Z,16.11
2019-05-05T02:54:06.033Z,16.34
2019-05-05T02:59:12.218Z,15.58
2019-05-05T03:04:16.952Z,16.34
2019-05-05T03:09:21.609Z,15.47
2019-05-05T03:14:27.256Z,14.43
2019-05-05T03:19:33.830Z,15.50
2019-05-05T03:24:38.711Z,15.28
2019-05-05T03:29:44.186Z,16.10
2019-05-05T03:34:50.743Z,15.85
2019-05-05T03:39:57.130Z,15.50
2019-05-05T03:45:06.474Z,16.08
2019-05-05T03:50:11.534Z,16.50
2019-05-05T03:55:16.269Z,16.20
2019-05-05T04:00:24.082Z,16.17
2019-05-05T04:05:30.367Z,15.56
2019-05-05T04:10:35.017Z,16.02
2019-05-05T04:15:41.297Z,15.62
2019-05-05T04:20:46.334Z,15.88
2019-05-05T04:25:51.089Z,16.27
2019-05-05T04:30:55.726Z,16.67
2019-05-05T04:36:00.452Z,16.38
2019-05-05T04:41:05.097Z,16.37
2019-05-05T04:46:09.946Z,16.64
2019-05-05T04:51:16.258Z,16.54
2019-05-05T04:56:20.967Z,17.08
2019-05-05T05:01:25.713Z,17.20
2019-05-05T05:06:37.930Z,17.39
2019-05-05T05:11:44.417Z,17.04
2019-05-05T05:16:50.818Z,16.28
2019-05-05T05:22:01.583Z,17.15
2019-05-05T05:27:01.924Z,17.22
2019-05-05T05:32:08.407Z,16.51
2019-05-05T05:37:13.490Z,15.65
2019-05-05T05:42:18.203Z,16.96
2019-05-05T05:47:27.441Z,17.75
2019-05-05T05:52:34.258Z,18.10
2019-05-05T05:57:39.500Z,18.22
2019-05-05T06:02:44.449Z,18.32
2019-05-05T06:07:54.385Z,18.17
2019-05-05T06:12:58.484Z,17.98
2019-05-05T06:18:04.794Z,17.51
2019-05-05T06:23:12.005Z,16.94
2019-05-05T06:28:16.970Z,18.38
2019-05-05T06:33:25.446Z,17.47
2019-05-05T06:38:34.559Z,17.23
2019-05-05T06:43:54.860Z,17.25
2019-05-05T06:48:59.711Z,17.31
2019-05-05T06:54:04.714Z,17.83
2019-05-05T06:59:10.810Z,17.26
2019-05-05T07:04:15.674Z,18.10
2019-05-05T07:09:21.429Z,17.57
2019-05-05T07:14:28.036Z,18.41
2019-05-05T07:19:34.456Z,16.97
2019-05-05T07:24:39.658Z,17.03
2019-05-05T07:29:45.376Z,18.41
2019-05-05T07:34:59.304Z,18.68
2019-05-05T07:40:06.700Z,19.37
2019-05-05T07:45:21.812Z,18.93
2019-05-05T07:50:28.640Z,19.98
2019-05-05T07:55:25.659Z,20.19
2019-05-05T08:00:34.165Z,20.73
2019-05-05T08:05:39.500Z,21.50
2019-05-05T08:10:45.429Z,21.21
2019-05-05T08:15:57.534Z,21.21
2019-05-05T08:20:59.933Z,20.75
2019-05-05T08:26:18.379Z,21.30
2019-05-05T08:31:27.536Z,21.04
2019-05-05T08:36:33.876Z,21.05
2019-05-05T08:41:39.190Z,21.09
2019-05-05T08:46:44.635Z,21.20
2019-05-05T08:51:49.356Z,21.65
2019-05-05T08:56:55.011Z,22.02
2019-05-05T09:02:00.279Z,22.62
2019-05-05T09:07:05.234Z,23.14
2019-05-05T09:12:11.104Z,23.23
2019-05-05T09:17:16.652Z,23.58
2019-05-05T09:22:24.579Z,23.33
2019-05-05T09:27:37.621Z,23.59
2019-05-05T09:32:43.867Z,23.70
2019-05-05T09:37:48.845Z,23.97
2019-05-05T09:42:54.007Z,23.98
2019-05-05T09:47:59.053Z,23.64
2019-05-05T09:53:04.204Z,24.37
2019-05-05T09:58:11.106Z,24.58
2019-05-05T10:03:15.943Z,25.48
2019-05-05T10:08:20.533Z,25.27
2019-05-05T10:13:25.439Z,25.11
2019-05-05T10:18:30.072Z,25.41
2019-05-05T10:23:36.367Z,25.65
2019-05-05T10:28:44.367Z,25.74
2019-05-05T10:33:50.284Z,25.30
2019-05-05T10:38:59.895Z,25.61
2019-05-05T10:44:05.852Z,25.94
2019-05-05T10:49:10.833Z,26.09
2019-05-05T10:54:15.920Z,25.84
2019-05-05T10:59:21.261Z,25.66
2019-05-05T11:04:26.235Z,26.06
2019-05-05T11:09:31.031Z,25.77
2019-05-05T11:14:35.885Z,24.71
2019-05-05T11:19:40.724Z,25.73
2019-05-05T11:24:57.305Z,24.96
2019-05-05T11:30:09.680Z,25.14
2019-05-05T11:35:14.611Z,26.06
2019-05-05T11:40:20.949Z,26.26
2019-05-05T11:45:27.179Z,26.09
2019-05-05T11:50:31.819Z,25.85
2019-05-05T11:55:36.563Z,25.75
2019-05-05T12:00:41.221Z,24.72
2019-05-05T12:05:46.056Z,24.94
2019-05-05T12:10:55.210Z,24.84
2019-05-05T12:16:01.369Z,24.95
2019-05-05T12:21:06.326Z,24.93
2019-05-05T12:26:26.731Z,25.55
2019-05-05T12:31:34.654Z,25.37
2019-05-05T12:36:39.400Z,25.86
2019-05-05T12:41:44.243Z,25.95
2019-05-05T12:46:50.573Z,24.67
2019-05-05T12:51:56.504Z,24.65
2019-05-05T12:57:01.241Z,25.00
2019-05-05T13:02:06.807Z,25.12
2019-05-05T13:07:13.295Z,25.38
2019-05-05T13:12:18.854Z,24.45
2019-05-05T13:17:24.484Z,23.93
2019-05-05T13:22:34.145Z,23.39
2019-05-05T13:27:41.368Z,23.58
2019-05-05T13:32:48.917Z,24.06
2019-05-05T13:37:55.022Z,24.73
2019-05-05T13:43:04.116Z,24.37
2019-05-05T13:48:08.547Z,24.74
2019-05-05T13:53:14.430Z,24.06
2019-05-05T13:58:19.264Z,23.43
2019-05-05T14:03:24.452Z,23.06
2019-05-05T14:08:29.822Z,22.76
2019-05-05T14:13:34.627Z,23.24
2019-05-05T14:18:39.574Z,21.72
2019-05-05T14:23:57.373Z,22.58
2019-05-05T14:29:04.431Z,22.37
2019-05-05T14:34:29.137Z,22.63
2019-05-05T14:39:35.249Z,23.06
2019-05-05T14:44:43.684Z,22.18
2019-05-05T14:49:50.325Z,22.84
2019-05-05T14:54:55.076Z,22.43
2019-05-05T15:00:04.702Z,22.79
2019-05-05T15:05:17.780Z,22.90
2019-05-05T15:10:37.988Z,22.92
2019-05-05T15:15:42.823Z,23.72
2019-05-05T15:20:51.774Z,23.35
2019-05-05T15:25:56.633Z,23.90
2019-05-05T15:31:01.768Z,24.11
2019-05-05T15:36:08.022Z,24.21
2019-05-05T15:41:14.560Z,23.87
2019-05-05T15:46:20.608Z,23.51
2019-05-05T15:51:26.567Z,23.80
2019-05-05T15:56:34.098Z,23.87
2019-05-05T16:01:39.750Z,23.77
2019-05-05T16:06:46.059Z,23.72
2019-05-05T16:11:51.027Z,23.42
2019-05-05T16:17:06.372Z,23.02
2019-05-05T16:22:17.472Z,23.18
2019-05-05T16:27:22.234Z,23.19
2019-05-05T16:32:27.166Z,23.15
2019-05-05T16:37:33.487Z,23.35
2019-05-05T16:42:38.285Z,23.56
2019-05-05T16:47:44.293Z,23.56
2019-05-05T16:52:57.042Z,23.38
2019-05-05T16:58:01.835Z,22.86
2019-05-05T17:03:06.988Z,22.84
2019-05-05T17:08:13.462Z,22.64
2019-05-05T17:13:25.185Z,22.13
2019-05-05T17:18:40.784Z,22.41
2019-05-05T17:23:45.521Z,22.32
2019-05-05T17:28:50.270Z,21.87
2019-05-05T17:33:55.010Z,21.10
2019-05-05T17:38:59.764Z,21.72
2019-05-05T17:44:06.519Z,20.75
2019-05-05T17:49:29.523Z,20.99
2019-05-05T17:54:35.796Z,21.13
2019-05-05T17:59:40.641Z,21.27
2019-05-05T18:04:46.210Z,21.01
2019-05-05T18:10:04.980Z,21.29
2019-05-05T18:15:14.434Z,21.20
2019-05-05T18:20:20.412Z,21.12
2019-05-05T18:25:25.260Z,20.77
2019-05-05T18:30:30.116Z,20.79
2019-05-05T18:35:34.738Z,20.68
2019-05-05T18:40:39.391Z,20.43
2019-05-05T18:45:44.289Z,21.16
2019-05-05T18:50:49.183Z,21.23
2019-05-05T18:55:54.215Z,20.88
2019-05-05T19:01:16.134Z,20.44
2019-05-05T19:06:24.038Z,21.22
2019-05-05T19:11:28.942Z,21.17
2019-05-05T19:16:34.625Z,20.83
2019-05-05T19:21:54.702Z,21.09
2019-05-05T19:26:59.454Z,20.43
2019-05-05T19:32:05.120Z,20.99
2019-05-05T19:37:09.962Z,21.08
2019-05-05T19:42:14.808Z,20.97
2019-05-05T19:47:20.925Z,21.03
2019-05-05T19:52:25.625Z,20.73
2019-05-05T19:57:30.267Z,20.30
2019-05-05T20:02:36.422Z,20.73
2019-05-05T20:07:41.095Z,20.49
2019-05-05T20:12:46.955Z,20.16
2019-05-05T20:17:53.450Z,20.31
2019-05-05T20:22:58.095Z,20.40
2019-05-05T20:28:03.921Z,20.67
2019-05-05T20:33:10.286Z,20.48
2019-05-05T20:38:31.871Z,20.06
2019-05-05T20:43:36.616Z,19.33
2019-05-05T20:48:41.499Z,19.94
2019-05-05T20:53:49.107Z,20.06
2019-05-05T20:58:54.868Z,19.99
2019-05-05T21:03:59.604Z,20.16
2019-05-05T21:09:05.877Z,19.87
2019-05-05T21:14:11.411Z,19.73
2019-05-05T21:19:16.172Z,19.99
2019-05-05T21:24:20.839Z,19.79
2019-05-05T21:29:37.703Z,19.66
2019-05-05T21:34:34.121Z,19.32
2019-05-05T21:39:38.218Z,19.25
2019-05-05T21:44:44.211Z,19.36
2019-05-05T21:49:49.229Z,19.16
2019-05-05T21:54:56.453Z,19.74
2019-05-05T22:00:01.699Z,19.59
2019-05-05T22:05:08.085Z,18.52
2019-05-05T22:10:13.585Z,19.47
2019-05-05T22:15:18.590Z,19.45
2019-05-05T22:20:27.634Z,18.42
2019-05-05T22:25:34.181Z,18.88
2019-05-05T22:30:38.662Z,19.07
2019-05-05T22:35:44.223Z,19.00
2019-05-05T22:40:50.092Z,19.03
2019-05-05T22:45:56.126Z,19.02
2019-05-05T22:51:01.140Z,18.76
2019-05-05T22:56:05.855Z,18.90
2019-05-05T23:01:10.602Z,18.72
2019-05-05T23:06:28.753Z,18.02
2019-05-05T23:11:33.502Z,18.44
2019-05-05T23:16:45.821Z,18.49
2019-05-05T23:21:54.217Z,18.65
2019-05-05T23:26:58.385Z,18.35
2019-05-05T23:32:03.125Z,18.11
2019-05-05T23:37:07.870Z,18.69
2019-05-05T23:42:14.599Z,18.16
2019-05-05T23:47:19.815Z,17.71
2019-05-05T23:52:24.559Z,18.27
2019-05-05T23:57:29.304Z,18.26
